sensor_id;sensor_type;location;lat;lon;timestamp;P1;durP1;ratioP1;P2;durP2;ratioP2
55170;SDS011;41060;47.510;8.680;2023-10-31T00:02:10;1.02;;;0.28;;
55170;SDS011;41060;47.510;8.680;2023-10-31T00:04:36;0.45;;;0.20;;
55170;SDS011;41060;47.510;8.680;2023-10-31T00:07:04;3.95;;;0.30;;
55170;SDS011;41060;47.510;8.680;2023-10-31T00:09:31;3.13;;;0.43;;
55170;SDS011;41060;47.510;8.680;2023-10-31T00:11:58;0.55;;;0.43;;
55170;SDS011;41060;47.510;8.680;2023-10-31T00:14:27;3.08;;;0.65;;
55170;SDS011;41060;47.510;8.680;2023-10-31T00:16:54;0.85;;;0.43;;
55170;SDS011;41060;47.510;8.680;2023-10-31T00:19:20;1.45;;;0.68;;
55170;SDS011;41060;47.510;8.680;2023-10-31T00:21:47;1.23;;;0.55;;
55170;SDS011;41060;47.510;8.680;2023-10-31T00:24:15;1.20;;;0.70;;
55170;SDS011;41060;47.510;8.680;2023-10-31T00:26:42;0.73;;;0.50;;
55170;SDS011;41060;47.510;8.680;2023-10-31T00:29:08;1.17;;;0.70;;
55170;SDS011;41060;47.510;8.680;2023-10-31T00:31:36;1.67;;;0.75;;
55170;SDS011;41060;47.510;8.680;2023-10-31T00:34:06;2.13;;;1.00;;
55170;SDS011;41060;47.510;8.680;2023-10-31T00:36:35;2.65;;;1.33;;
55170;SDS011;41060;47.510;8.680;2023-10-31T00:39:02;2.78;;;1.50;;
55170;SDS011;41060;47.510;8.680;2023-10-31T00:41:30;2.60;;;1.42;;
55170;SDS011;41060;47.510;8.680;2023-10-31T00:44:06;3.20;;;1.30;;
55170;SDS011;41060;47.510;8.680;2023-10-31T00:46:32;2.95;;;1.05;;
55170;SDS011;41060;47.510;8.680;2023-10-31T00:48:59;3.35;;;1.85;;
55170;SDS011;41060;47.510;8.680;2023-10-31T00:51:26;2.30;;;1.27;;
55170;SDS011;41060;47.510;8.680;2023-10-31T00:53:55;2.63;;;0.93;;
55170;SDS011;41060;47.510;8.680;2023-10-31T00:56:24;1.55;;;1.30;;
55170;SDS011;41060;47.510;8.680;2023-10-31T00:58:53;2.17;;;1.42;;
55170;SDS011;41060;47.510;8.680;2023-10-31T01:01:19;2.50;;;1.45;;
55170;SDS011;41060;47.510;8.680;2023-10-31T01:03:46;2.55;;;1.05;;
55170;SDS011;41060;47.510;8.680;2023-10-31T01:06:13;0.98;;;0.55;;
55170;SDS011;41060;47.510;8.680;2023-10-31T01:08:40;1.50;;;1.00;;
55170;SDS011;41060;47.510;8.680;2023-10-31T01:11:06;2.28;;;1.10;;
55170;SDS011;41060;47.510;8.680;2023-10-31T01:13:33;2.10;;;1.02;;
55170;SDS011;41060;47.510;8.680;2023-10-31T01:16:01;2.35;;;1.20;;
55170;SDS011;41060;47.510;8.680;2023-10-31T01:18:28;2.15;;;0.88;;
55170;SDS011;41060;47.510;8.680;2023-10-31T01:20:55;1.58;;;0.60;;
55170;SDS011;41060;47.510;8.680;2023-10-31T01:23:22;0.88;;;0.63;;
55170;SDS011;41060;47.510;8.680;2023-10-31T01:25:49;1.45;;;0.63;;
55170;SDS011;41060;47.510;8.680;2023-10-31T01:28:18;1.15;;;0.30;;
55170;SDS011;41060;47.510;8.680;2023-10-31T01:30:44;0.90;;;0.52;;
55170;SDS011;41060;47.510;8.680;2023-10-31T01:33:12;0.88;;;0.50;;
55170;SDS011;41060;47.510;8.680;2023-10-31T01:35:39;0.70;;;0.45;;
55170;SDS011;41060;47.510;8.680;2023-10-31T01:38:06;1.13;;;0.65;;
55170;SDS011;41060;47.510;8.680;2023-10-31T01:40:32;1.08;;;0.70;;
55170;SDS011;41060;47.510;8.680;2023-10-31T01:42:59;1.45;;;0.50;;
55170;SDS011;41060;47.510;8.680;2023-10-31T01:45:26;0.80;;;0.60;;
55170;SDS011;41060;47.510;8.680;2023-10-31T01:47:52;2.47;;;0.45;;
55170;SDS011;41060;47.510;8.680;2023-10-31T01:50:21;0.80;;;0.50;;
55170;SDS011;41060;47.510;8.680;2023-10-31T01:52:48;0.57;;;0.30;;
55170;SDS011;41060;47.510;8.680;2023-10-31T01:55:14;4.88;;;0.73;;
55170;SDS011;41060;47.510;8.680;2023-10-31T01:57:42;0.60;;;0.40;;
55170;SDS011;41060;47.510;8.680;2023-10-31T02:00:14;1.13;;;0.50;;
55170;SDS011;41060;47.510;8.680;2023-10-31T02:02:42;1.48;;;0.68;;
55170;SDS011;41060;47.510;8.680;2023-10-31T02:05:09;0.68;;;0.50;;
55170;SDS011;41060;47.510;8.680;2023-10-31T02:07:37;0.80;;;0.40;;
55170;SDS011;41060;47.510;8.680;2023-10-31T02:10:04;1.45;;;0.60;;
55170;SDS011;41060;47.510;8.680;2023-10-31T02:12:32;2.15;;;0.60;;
55170;SDS011;41060;47.510;8.680;2023-10-31T02:15:02;0.57;;;0.45;;
55170;SDS011;41060;47.510;8.680;2023-10-31T02:17:30;0.90;;;0.50;;
55170;SDS011;41060;47.510;8.680;2023-10-31T02:19:57;1.15;;;0.60;;
55170;SDS011;41060;47.510;8.680;2023-10-31T02:22:25;0.82;;;0.45;;
55170;SDS011;41060;47.510;8.680;2023-10-31T02:24:52;1.15;;;0.65;;
55170;SDS011;41060;47.510;8.680;2023-10-31T02:27:18;0.85;;;0.52;;
55170;SDS011;41060;47.510;8.680;2023-10-31T02:29:45;1.02;;;0.65;;
55170;SDS011;41060;47.510;8.680;2023-10-31T02:32:15;0.95;;;0.55;;
55170;SDS011;41060;47.510;8.680;2023-10-31T02:34:41;0.50;;;0.30;;
55170;SDS011;41060;47.510;8.680;2023-10-31T02:37:08;0.85;;;0.55;;
55170;SDS011;41060;47.510;8.680;2023-10-31T02:39:36;1.02;;;0.70;;
55170;SDS011;41060;47.510;8.680;2023-10-31T02:42:03;0.57;;;0.40;;
55170;SDS011;41060;47.510;8.680;2023-10-31T02:44:30;0.93;;;0.50;;
55170;SDS011;41060;47.510;8.680;2023-10-31T02:46:57;0.52;;;0.50;;
55170;SDS011;41060;47.510;8.680;2023-10-31T02:49:23;1.52;;;0.50;;
55170;SDS011;41060;47.510;8.680;2023-10-31T02:51:50;0.70;;;0.57;;
55170;SDS011;41060;47.510;8.680;2023-10-31T02:54:17;0.80;;;0.70;;
55170;SDS011;41060;47.510;8.680;2023-10-31T02:56:45;0.88;;;0.40;;
55170;SDS011;41060;47.510;8.680;2023-10-31T02:59:11;2.35;;;0.77;;
55170;SDS011;41060;47.510;8.680;2023-10-31T03:01:38;0.70;;;0.40;;
55170;SDS011;41060;47.510;8.680;2023-10-31T03:04:05;1.90;;;0.70;;
55170;SDS011;41060;47.510;8.680;2023-10-31T03:06:32;0.30;;;0.30;;
55170;SDS011;41060;47.510;8.680;2023-10-31T03:08:59;0.80;;;0.52;;
55170;SDS011;41060;47.510;8.680;2023-10-31T03:11:26;2.00;;;0.70;;
55170;SDS011;41060;47.510;8.680;2023-10-31T03:13:54;0.98;;;0.32;;
55170;SDS011;41060;47.510;8.680;2023-10-31T03:16:27;0.70;;;0.43;;
55170;SDS011;41060;47.510;8.680;2023-10-31T03:18:54;0.77;;;0.50;;
55170;SDS011;41060;47.510;8.680;2023-10-31T03:21:20;4.38;;;0.65;;
55170;SDS011;41060;47.510;8.680;2023-10-31T03:23:48;0.52;;;0.43;;
55170;SDS011;41060;47.510;8.680;2023-10-31T03:26:15;2.28;;;0.40;;
55170;SDS011;41060;47.510;8.680;2023-10-31T03:28:42;0.73;;;0.40;;
55170;SDS011;41060;47.510;8.680;2023-10-31T03:31:11;2.45;;;0.98;;
55170;SDS011;41060;47.510;8.680;2023-10-31T03:33:41;1.75;;;0.63;;
55170;SDS011;41060;47.510;8.680;2023-10-31T03:36:08;1.00;;;0.38;;
55170;SDS011;41060;47.510;8.680;2023-10-31T03:38:36;0.20;;;0.20;;
55170;SDS011;41060;47.510;8.680;2023-10-31T03:41:03;0.80;;;0.38;;
55170;SDS011;41060;47.510;8.680;2023-10-31T03:43:30;0.30;;;0.20;;
55170;SDS011;41060;47.510;8.680;2023-10-31T03:45:57;0.35;;;0.30;;
55170;SDS011;41060;47.510;8.680;2023-10-31T03:48:25;0.55;;;0.40;;
55170;SDS011;41060;47.510;8.680;2023-10-31T03:50:52;0.20;;;0.20;;
55170;SDS011;41060;47.510;8.680;2023-10-31T03:53:22;2.95;;;0.40;;
55170;SDS011;41060;47.510;8.680;2023-10-31T03:55:50;0.20;;;0.20;;
55170;SDS011;41060;47.510;8.680;2023-10-31T03:58:17;0.25;;;0.22;;
55170;SDS011;41060;47.510;8.680;2023-10-31T04:00:44;0.30;;;0.25;;
55170;SDS011;41060;47.510;8.680;2023-10-31T04:03:10;0.75;;;0.47;;
55170;SDS011;41060;47.510;8.680;2023-10-31T04:05:38;1.70;;;0.38;;
55170;SDS011;41060;47.510;8.680;2023-10-31T04:08:06;0.10;;;0.10;;
55170;SDS011;41060;47.510;8.680;2023-10-31T04:10:32;0.40;;;0.30;;
55170;SDS011;41060;47.510;8.680;2023-10-31T04:12:59;0.55;;;0.35;;
55170;SDS011;41060;47.510;8.680;2023-10-31T04:15:26;0.80;;;0.25;;
55170;SDS011;41060;47.510;8.680;2023-10-31T04:17:52;2.53;;;0.52;;
55170;SDS011;41060;47.510;8.680;2023-10-31T04:20:19;0.20;;;0.17;;
55170;SDS011;41060;47.510;8.680;2023-10-31T04:22:48;2.65;;;0.35;;
55170;SDS011;41060;47.510;8.680;2023-10-31T04:25:15;0.85;;;0.50;;
55170;SDS011;41060;47.510;8.680;2023-10-31T04:27:41;0.50;;;0.20;;
55170;SDS011;41060;47.510;8.680;2023-10-31T04:30:09;0.77;;;0.25;;
55170;SDS011;41060;47.510;8.680;2023-10-31T04:32:36;0.55;;;0.30;;
55170;SDS011;41060;47.510;8.680;2023-10-31T04:35:02;0.20;;;0.20;;
55170;SDS011;41060;47.510;8.680;2023-10-31T04:37:31;1.45;;;0.32;;
55170;SDS011;41060;47.510;8.680;2023-10-31T04:39:59;1.17;;;0.40;;
55170;SDS011;41060;47.510;8.680;2023-10-31T04:42:25;0.30;;;0.17;;
55170;SDS011;41060;47.510;8.680;2023-10-31T04:44:52;1.23;;;0.40;;
55170;SDS011;41060;47.510;8.680;2023-10-31T04:47:19;0.90;;;0.30;;
55170;SDS011;41060;47.510;8.680;2023-10-31T04:49:46;0.63;;;0.30;;
55170;SDS011;41060;47.510;8.680;2023-10-31T04:52:13;0.30;;;0.20;;
55170;SDS011;41060;47.510;8.680;2023-10-31T04:54:39;0.60;;;0.30;;
55170;SDS011;41060;47.510;8.680;2023-10-31T04:57:07;0.30;;;0.30;;
55170;SDS011;41060;47.510;8.680;2023-10-31T04:59:36;0.45;;;0.40;;
55170;SDS011;41060;47.510;8.680;2023-10-31T05:02:03;0.28;;;0.28;;
55170;SDS011;41060;47.510;8.680;2023-10-31T05:04:30;0.75;;;0.50;;
55170;SDS011;41060;47.510;8.680;2023-10-31T05:06:57;0.40;;;0.40;;
55170;SDS011;41060;47.510;8.680;2023-10-31T05:09:23;1.15;;;0.38;;
55170;SDS011;41060;47.510;8.680;2023-10-31T05:11:50;0.90;;;0.40;;
55170;SDS011;41060;47.510;8.680;2023-10-31T05:14:19;0.20;;;0.20;;
55170;SDS011;41060;47.510;8.680;2023-10-31T05:16:45;1.65;;;0.50;;
55170;SDS011;41060;47.510;8.680;2023-10-31T05:19:12;1.35;;;0.38;;
55170;SDS011;41060;47.510;8.680;2023-10-31T05:21:39;0.95;;;0.43;;
55170;SDS011;41060;47.510;8.680;2023-10-31T05:24:06;2.15;;;0.68;;
55170;SDS011;41060;47.510;8.680;2023-10-31T05:26:33;0.52;;;0.40;;
55170;SDS011;41060;47.510;8.680;2023-10-31T05:29:00;3.92;;;0.70;;
55170;SDS011;41060;47.510;8.680;2023-10-31T05:31:31;0.35;;;0.20;;
55170;SDS011;41060;47.510;8.680;2023-10-31T05:33:57;0.22;;;0.22;;
55170;SDS011;41060;47.510;8.680;2023-10-31T05:36:25;0.93;;;0.52;;
55170;SDS011;41060;47.510;8.680;2023-10-31T05:38:53;1.25;;;0.20;;
55170;SDS011;41060;47.510;8.680;2023-10-31T05:41:19;1.77;;;0.32;;
55170;SDS011;41060;47.510;8.680;2023-10-31T05:43:46;1.45;;;0.40;;
55170;SDS011;41060;47.510;8.680;2023-10-31T05:46:13;3.60;;;0.38;;
55170;SDS011;41060;47.510;8.680;2023-10-31T05:48:43;0.57;;;0.40;;
55170;SDS011;41060;47.510;8.680;2023-10-31T05:51:12;1.67;;;0.47;;
55170;SDS011;41060;47.510;8.680;2023-10-31T05:53:39;0.60;;;0.40;;
55170;SDS011;41060;47.510;8.680;2023-10-31T05:56:07;0.17;;;0.17;;
55170;SDS011;41060;47.510;8.680;2023-10-31T05:58:36;2.30;;;0.60;;
55170;SDS011;41060;47.510;8.680;2023-10-31T06:01:06;0.82;;;0.43;;
55170;SDS011;41060;47.510;8.680;2023-10-31T06:03:33;0.57;;;0.28;;
55170;SDS011;41060;47.510;8.680;2023-10-31T06:06:02;0.32;;;0.17;;
55170;SDS011;41060;47.510;8.680;2023-10-31T06:08:29;0.50;;;0.22;;
55170;SDS011;41060;47.510;8.680;2023-10-31T06:10:55;0.77;;;0.50;;
55170;SDS011;41060;47.510;8.680;2023-10-31T06:13:23;0.40;;;0.30;;
55170;SDS011;41060;47.510;8.680;2023-10-31T06:15:51;0.50;;;0.40;;
55170;SDS011;41060;47.510;8.680;2023-10-31T06:18:17;0.98;;;0.45;;
55170;SDS011;41060;47.510;8.680;2023-10-31T06:20:48;0.45;;;0.30;;
55170;SDS011;41060;47.510;8.680;2023-10-31T06:23:15;0.73;;;0.65;;
55170;SDS011;41060;47.510;8.680;2023-10-31T06:25:42;0.25;;;0.25;;
55170;SDS011;41060;47.510;8.680;2023-10-31T06:28:09;0.47;;;0.30;;
55170;SDS011;41060;47.510;8.680;2023-10-31T06:30:36;0.43;;;0.35;;
55170;SDS011;41060;47.510;8.680;2023-10-31T06:33:02;0.25;;;0.25;;
55170;SDS011;41060;47.510;8.680;2023-10-31T06:35:29;0.13;;;0.13;;
55170;SDS011;41060;47.510;8.680;2023-10-31T06:37:56;1.20;;;0.60;;
55170;SDS011;41060;47.510;8.680;2023-10-31T06:40:24;2.10;;;0.32;;
55170;SDS011;41060;47.510;8.680;2023-10-31T06:42:51;1.42;;;0.68;;
55170;SDS011;41060;47.510;8.680;2023-10-31T06:45:18;5.75;;;0.50;;
55170;SDS011;41060;47.510;8.680;2023-10-31T06:47:45;0.55;;;0.30;;
55170;SDS011;41060;47.510;8.680;2023-10-31T06:50:12;2.20;;;0.43;;
55170;SDS011;41060;47.510;8.680;2023-10-31T06:52:38;0.20;;;0.20;;
55170;SDS011;41060;47.510;8.680;2023-10-31T06:55:08;0.65;;;0.35;;
55170;SDS011;41060;47.510;8.680;2023-10-31T06:57:36;0.38;;;0.30;;
55170;SDS011;41060;47.510;8.680;2023-10-31T07:00:03;1.23;;;0.50;;
55170;SDS011;41060;47.510;8.680;2023-10-31T07:02:33;0.73;;;0.60;;
55170;SDS011;41060;47.510;8.680;2023-10-31T07:05:00;0.95;;;0.40;;
55170;SDS011;41060;47.510;8.680;2023-10-31T07:07:27;0.20;;;0.20;;
55170;SDS011;41060;47.510;8.680;2023-10-31T07:09:53;0.45;;;0.38;;
55170;SDS011;41060;47.510;8.680;2023-10-31T07:12:23;0.20;;;0.20;;
55170;SDS011;41060;47.510;8.680;2023-10-31T07:14:54;1.52;;;0.77;;
55170;SDS011;41060;47.510;8.680;2023-10-31T07:17:24;1.25;;;0.30;;
55170;SDS011;41060;47.510;8.680;2023-10-31T07:19:51;0.30;;;0.28;;
55170;SDS011;41060;47.510;8.680;2023-10-31T07:22:17;1.67;;;0.40;;
55170;SDS011;41060;47.510;8.680;2023-10-31T07:24:44;0.70;;;0.55;;
55170;SDS011;41060;47.510;8.680;2023-10-31T07:27:11;0.30;;;0.20;;
55170;SDS011;41060;47.510;8.680;2023-10-31T07:29:38;2.22;;;0.30;;
55170;SDS011;41060;47.510;8.680;2023-10-31T07:32:07;1.00;;;0.40;;
55170;SDS011;41060;47.510;8.680;2023-10-31T07:34:34;0.57;;;0.30;;
55170;SDS011;41060;47.510;8.680;2023-10-31T07:37:01;1.85;;;0.20;;
55170;SDS011;41060;47.510;8.680;2023-10-31T07:39:28;0.50;;;0.40;;
55170;SDS011;41060;47.510;8.680;2023-10-31T07:41:55;2.60;;;0.47;;
55170;SDS011;41060;47.510;8.680;2023-10-31T07:44:21;0.50;;;0.50;;
55170;SDS011;41060;47.510;8.680;2023-10-31T07:46:48;1.38;;;0.55;;
55170;SDS011;41060;47.510;8.680;2023-10-31T07:49:16;0.57;;;0.30;;
55170;SDS011;41060;47.510;8.680;2023-10-31T07:51:42;0.30;;;0.25;;
55170;SDS011;41060;47.510;8.680;2023-10-31T07:54:11;1.02;;;0.50;;
55170;SDS011;41060;47.510;8.680;2023-10-31T07:56:38;0.73;;;0.32;;
55170;SDS011;41060;47.510;8.680;2023-10-31T07:59:05;0.88;;;0.38;;
55170;SDS011;41060;47.510;8.680;2023-10-31T08:01:33;0.80;;;0.32;;
55170;SDS011;41060;47.510;8.680;2023-10-31T08:04:00;1.42;;;0.50;;
55170;SDS011;41060;47.510;8.680;2023-10-31T08:06:28;3.30;;;0.65;;
55170;SDS011;41060;47.510;8.680;2023-10-31T08:08:55;2.15;;;0.30;;
55170;SDS011;41060;47.510;8.680;2023-10-31T08:11:21;3.83;;;0.50;;
55170;SDS011;41060;47.510;8.680;2023-10-31T08:13:48;0.22;;;0.20;;
55170;SDS011;41060;47.510;8.680;2023-10-31T08:16:16;3.38;;;0.47;;
55170;SDS011;41060;47.510;8.680;2023-10-31T08:18:44;0.95;;;0.40;;
55170;SDS011;41060;47.510;8.680;2023-10-31T08:21:11;1.30;;;0.45;;
55170;SDS011;41060;47.510;8.680;2023-10-31T08:23:40;1.40;;;0.43;;
55170;SDS011;41060;47.510;8.680;2023-10-31T08:26:07;1.67;;;0.43;;
55170;SDS011;41060;47.510;8.680;2023-10-31T08:28:33;1.10;;;0.57;;
55170;SDS011;41060;47.510;8.680;2023-10-31T08:31:00;0.65;;;0.50;;
55170;SDS011;41060;47.510;8.680;2023-10-31T08:33:29;0.88;;;0.50;;
55170;SDS011;41060;47.510;8.680;2023-10-31T08:35:55;1.20;;;0.52;;
55170;SDS011;41060;47.510;8.680;2023-10-31T08:38:22;2.17;;;0.40;;
55170;SDS011;41060;47.510;8.680;2023-10-31T08:40:50;2.38;;;0.40;;
55170;SDS011;41060;47.510;8.680;2023-10-31T08:43:17;1.45;;;0.40;;
55170;SDS011;41060;47.510;8.680;2023-10-31T08:45:44;0.32;;;0.25;;
55170;SDS011;41060;47.510;8.680;2023-10-31T08:48:10;1.77;;;0.40;;
55170;SDS011;41060;47.510;8.680;2023-10-31T08:50:37;3.45;;;0.82;;
55170;SDS011;41060;47.510;8.680;2023-10-31T08:53:04;0.60;;;0.30;;
55170;SDS011;41060;47.510;8.680;2023-10-31T08:55:34;1.08;;;0.60;;
55170;SDS011;41060;47.510;8.680;2023-10-31T08:58:01;2.92;;;0.70;;
55170;SDS011;41060;47.510;8.680;2023-10-31T09:00:29;3.55;;;0.77;;
55170;SDS011;41060;47.510;8.680;2023-10-31T09:02:55;0.25;;;0.25;;
55170;SDS011;41060;47.510;8.680;2023-10-31T09:05:22;0.50;;;0.40;;
55170;SDS011;41060;47.510;8.680;2023-10-31T09:07:49;3.83;;;0.52;;
55170;SDS011;41060;47.510;8.680;2023-10-31T09:10:15;1.90;;;0.35;;
55170;SDS011;41060;47.510;8.680;2023-10-31T09:12:42;1.75;;;0.57;;
55170;SDS011;41060;47.510;8.680;2023-10-31T09:15:10;0.82;;;0.40;;
55170;SDS011;41060;47.510;8.680;2023-10-31T09:17:41;0.95;;;0.55;;
55170;SDS011;41060;47.510;8.680;2023-10-31T09:20:09;1.85;;;0.40;;
55170;SDS011;41060;47.510;8.680;2023-10-31T09:22:36;0.90;;;0.20;;
55170;SDS011;41060;47.510;8.680;2023-10-31T09:25:05;1.30;;;0.40;;
55170;SDS011;41060;47.510;8.680;2023-10-31T09:27:32;0.40;;;0.40;;
55170;SDS011;41060;47.510;8.680;2023-10-31T09:29:59;3.47;;;0.68;;
55170;SDS011;41060;47.510;8.680;2023-10-31T09:32:28;1.83;;;0.52;;
55170;SDS011;41060;47.510;8.680;2023-10-31T09:34:56;2.15;;;0.55;;
55170;SDS011;41060;47.510;8.680;2023-10-31T09:37:23;0.35;;;0.30;;
55170;SDS011;41060;47.510;8.680;2023-10-31T09:39:51;3.55;;;0.40;;
55170;SDS011;41060;47.510;8.680;2023-10-31T09:42:18;0.60;;;0.45;;
55170;SDS011;41060;47.510;8.680;2023-10-31T09:44:45;0.55;;;0.50;;
55170;SDS011;41060;47.510;8.680;2023-10-31T09:47:11;1.50;;;0.50;;
55170;SDS011;41060;47.510;8.680;2023-10-31T09:49:40;1.55;;;0.30;;
55170;SDS011;41060;47.510;8.680;2023-10-31T09:52:07;1.08;;;0.40;;
55170;SDS011;41060;47.510;8.680;2023-10-31T09:54:34;0.28;;;0.20;;
55170;SDS011;41060;47.510;8.680;2023-10-31T09:57:02;2.83;;;0.52;;
55170;SDS011;41060;47.510;8.680;2023-10-31T09:59:29;1.17;;;0.63;;
55170;SDS011;41060;47.510;8.680;2023-10-31T10:01:56;1.67;;;0.38;;
55170;SDS011;41060;47.510;8.680;2023-10-31T10:04:23;1.08;;;0.52;;
55170;SDS011;41060;47.510;8.680;2023-10-31T10:06:52;0.10;;;0.10;;
55170;SDS011;41060;47.510;8.680;2023-10-31T10:09:26;1.27;;;0.20;;
55170;SDS011;41060;47.510;8.680;2023-10-31T10:11:53;0.20;;;0.20;;
55170;SDS011;41060;47.510;8.680;2023-10-31T10:14:20;0.60;;;0.30;;
55170;SDS011;41060;47.510;8.680;2023-10-31T10:16:49;0.38;;;0.32;;
55170;SDS011;41060;47.510;8.680;2023-10-31T10:19:16;0.60;;;0.25;;
55170;SDS011;41060;47.510;8.680;2023-10-31T10:21:48;0.68;;;0.40;;
55170;SDS011;41060;47.510;8.680;2023-10-31T10:24:17;1.95;;;0.57;;
55170;SDS011;41060;47.510;8.680;2023-10-31T10:26:45;0.20;;;0.20;;
55170;SDS011;41060;47.510;8.680;2023-10-31T10:29:12;0.20;;;0.20;;
55170;SDS011;41060;47.510;8.680;2023-10-31T10:31:39;0.88;;;0.40;;
55170;SDS011;41060;47.510;8.680;2023-10-31T10:34:07;0.35;;;0.35;;
55170;SDS011;41060;47.510;8.680;2023-10-31T10:36:34;0.75;;;0.30;;
55170;SDS011;41060;47.510;8.680;2023-10-31T10:39:01;2.17;;;0.30;;
55170;SDS011;41060;47.510;8.680;2023-10-31T10:41:30;2.53;;;0.40;;
55170;SDS011;41060;47.510;8.680;2023-10-31T10:44:03;0.80;;;0.80;;
55170;SDS011;41060;47.510;8.680;2023-10-31T10:46:32;0.45;;;0.28;;
55170;SDS011;41060;47.510;8.680;2023-10-31T10:49:01;3.33;;;0.65;;
55170;SDS011;41060;47.510;8.680;2023-10-31T10:51:34;0.55;;;0.50;;
55170;SDS011;41060;47.510;8.680;2023-10-31T10:54:11;0.80;;;0.63;;
55170;SDS011;41060;47.510;8.680;2023-10-31T10:56:49;1.05;;;0.40;;
55170;SDS011;41060;47.510;8.680;2023-10-31T10:59:24;0.90;;;0.50;;
55170;SDS011;41060;47.510;8.680;2023-10-31T11:01:59;0.35;;;0.30;;
55170;SDS011;41060;47.510;8.680;2023-10-31T11:04:27;0.28;;;0.25;;
55170;SDS011;41060;47.510;8.680;2023-10-31T11:06:54;1.02;;;0.40;;
55170;SDS011;41060;47.510;8.680;2023-10-31T11:09:22;0.45;;;0.22;;
55170;SDS011;41060;47.510;8.680;2023-10-31T11:11:51;1.35;;;0.38;;
55170;SDS011;41060;47.510;8.680;2023-10-31T11:14:22;0.98;;;0.55;;
55170;SDS011;41060;47.510;8.680;2023-10-31T11:16:53;1.10;;;0.50;;
55170;SDS011;41060;47.510;8.680;2023-10-31T11:19:23;1.02;;;0.60;;
55170;SDS011;41060;47.510;8.680;2023-10-31T11:21:53;1.20;;;0.40;;
55170;SDS011;41060;47.510;8.680;2023-10-31T11:24:20;4.10;;;0.95;;
55170;SDS011;41060;47.510;8.680;2023-10-31T11:26:53;0.35;;;0.25;;
55170;SDS011;41060;47.510;8.680;2023-10-31T11:29:24;1.52;;;0.55;;
55170;SDS011;41060;47.510;8.680;2023-10-31T11:31:53;0.20;;;0.20;;
55170;SDS011;41060;47.510;8.680;2023-10-31T11:34:21;0.40;;;0.30;;
55170;SDS011;41060;47.510;8.680;2023-10-31T11:36:48;2.00;;;0.32;;
55170;SDS011;41060;47.510;8.680;2023-10-31T11:39:18;0.47;;;0.40;;
55170;SDS011;41060;47.510;8.680;2023-10-31T11:41:50;0.30;;;0.20;;
55170;SDS011;41060;47.510;8.680;2023-10-31T11:44:23;0.47;;;0.40;;
55170;SDS011;41060;47.510;8.680;2023-10-31T11:46:52;0.45;;;0.30;;
55170;SDS011;41060;47.510;8.680;2023-10-31T11:49:28;0.43;;;0.30;;
55170;SDS011;41060;47.510;8.680;2023-10-31T11:52:14;0.25;;;0.20;;
55170;SDS011;41060;47.510;8.680;2023-10-31T11:54:41;0.30;;;0.20;;
55170;SDS011;41060;47.510;8.680;2023-10-31T11:57:11;3.00;;;0.45;;
55170;SDS011;41060;47.510;8.680;2023-10-31T11:59:56;2.55;;;0.40;;
55170;SDS011;41060;47.510;8.680;2023-10-31T12:02:22;1.40;;;0.40;;
55170;SDS011;41060;47.510;8.680;2023-10-31T12:04:50;0.25;;;0.15;;
55170;SDS011;41060;47.510;8.680;2023-10-31T12:07:18;0.20;;;0.15;;
55170;SDS011;41060;47.510;8.680;2023-10-31T12:09:45;0.82;;;0.57;;
55170;SDS011;41060;47.510;8.680;2023-10-31T12:12:12;0.90;;;0.40;;
55170;SDS011;41060;47.510;8.680;2023-10-31T12:14:39;1.88;;;0.40;;
55170;SDS011;41060;47.510;8.680;2023-10-31T12:17:07;1.08;;;0.77;;
55170;SDS011;41060;47.510;8.680;2023-10-31T12:19:35;0.40;;;0.28;;
55170;SDS011;41060;47.510;8.680;2023-10-31T12:22:11;1.33;;;0.30;;
55170;SDS011;41060;47.510;8.680;2023-10-31T12:24:38;1.15;;;0.50;;
55170;SDS011;41060;47.510;8.680;2023-10-31T12:27:05;0.35;;;0.28;;
55170;SDS011;41060;47.510;8.680;2023-10-31T12:29:35;0.20;;;0.20;;
55170;SDS011;41060;47.510;8.680;2023-10-31T12:32:02;1.15;;;0.60;;
55170;SDS011;41060;47.510;8.680;2023-10-31T12:34:31;1.35;;;0.50;;
55170;SDS011;41060;47.510;8.680;2023-10-31T12:36:59;1.95;;;0.30;;
55170;SDS011;41060;47.510;8.680;2023-10-31T12:39:28;0.10;;;0.10;;
55170;SDS011;41060;47.510;8.680;2023-10-31T12:41:56;0.50;;;0.40;;
55170;SDS011;41060;47.510;8.680;2023-10-31T12:44:23;1.23;;;0.38;;
55170;SDS011;41060;47.510;8.680;2023-10-31T12:46:52;0.95;;;0.50;;
55170;SDS011;41060;47.510;8.680;2023-10-31T12:49:19;0.82;;;0.20;;
55170;SDS011;41060;47.510;8.680;2023-10-31T12:51:58;0.20;;;0.20;;
55170;SDS011;41060;47.510;8.680;2023-10-31T12:54:30;0.32;;;0.30;;
55170;SDS011;41060;47.510;8.680;2023-10-31T12:57:00;0.75;;;0.38;;
55170;SDS011;41060;47.510;8.680;2023-10-31T12:59:28;0.38;;;0.25;;
55170;SDS011;41060;47.510;8.680;2023-10-31T13:01:55;0.43;;;0.28;;
55170;SDS011;41060;47.510;8.680;2023-10-31T13:04:25;1.95;;;0.57;;
55170;SDS011;41060;47.510;8.680;2023-10-31T13:07:01;0.85;;;0.50;;
55170;SDS011;41060;47.510;8.680;2023-10-31T13:09:29;0.95;;;0.30;;
55170;SDS011;41060;47.510;8.680;2023-10-31T13:12:00;0.30;;;0.25;;
55170;SDS011;41060;47.510;8.680;2023-10-31T13:14:28;0.15;;;0.15;;
55170;SDS011;41060;47.510;8.680;2023-10-31T13:16:54;0.32;;;0.20;;
55170;SDS011;41060;47.510;8.680;2023-10-31T13:19:21;0.15;;;0.10;;
55170;SDS011;41060;47.510;8.680;2023-10-31T13:21:48;0.20;;;0.20;;
55170;SDS011;41060;47.510;8.680;2023-10-31T13:24:16;0.90;;;0.20;;
55170;SDS011;41060;47.510;8.680;2023-10-31T13:26:43;0.22;;;0.22;;
55170;SDS011;41060;47.510;8.680;2023-10-31T13:29:10;0.20;;;0.20;;
55170;SDS011;41060;47.510;8.680;2023-10-31T13:31:37;0.35;;;0.13;;
55170;SDS011;41060;47.510;8.680;2023-10-31T13:34:04;0.57;;;0.17;;
55170;SDS011;41060;47.510;8.680;2023-10-31T13:36:31;0.65;;;0.28;;
55170;SDS011;41060;47.510;8.680;2023-10-31T13:38:58;0.17;;;0.10;;
55170;SDS011;41060;47.510;8.680;2023-10-31T13:41:26;0.20;;;0.20;;
55170;SDS011;41060;47.510;8.680;2023-10-31T13:44:02;0.28;;;0.28;;
55170;SDS011;41060;47.510;8.680;2023-10-31T13:46:29;0.25;;;0.20;;
55170;SDS011;41060;47.510;8.680;2023-10-31T13:48:56;0.20;;;0.13;;
55170;SDS011;41060;47.510;8.680;2023-10-31T13:51:24;0.13;;;0.13;;
55170;SDS011;41060;47.510;8.680;2023-10-31T13:53:50;0.40;;;0.20;;
55170;SDS011;41060;47.510;8.680;2023-10-31T13:56:18;0.17;;;0.10;;
55170;SDS011;41060;47.510;8.680;2023-10-31T13:58:48;4.40;;;1.20;;
55170;SDS011;41060;47.510;8.680;2023-10-31T14:01:14;0.17;;;0.10;;
55170;SDS011;41060;47.510;8.680;2023-10-31T14:03:42;0.98;;;0.20;;
55170;SDS011;41060;47.510;8.680;2023-10-31T14:06:08;1.45;;;0.20;;
55170;SDS011;41060;47.510;8.680;2023-10-31T14:08:35;0.10;;;0.10;;
55170;SDS011;41060;47.510;8.680;2023-10-31T14:11:02;0.28;;;0.20;;
55170;SDS011;41060;47.510;8.680;2023-10-31T14:13:29;0.40;;;0.22;;
55170;SDS011;41060;47.510;8.680;2023-10-31T14:15:57;0.35;;;0.17;;
55170;SDS011;41060;47.510;8.680;2023-10-31T14:18:26;0.10;;;0.10;;
55170;SDS011;41060;47.510;8.680;2023-10-31T14:20:53;1.30;;;0.20;;
55170;SDS011;41060;47.510;8.680;2023-10-31T14:23:20;0.10;;;0.10;;
55170;SDS011;41060;47.510;8.680;2023-10-31T14:25:47;0.10;;;0.10;;
55170;SDS011;41060;47.510;8.680;2023-10-31T14:28:13;0.20;;;0.20;;
55170;SDS011;41060;47.510;8.680;2023-10-31T14:30:40;0.45;;;0.10;;
55170;SDS011;41060;47.510;8.680;2023-10-31T14:33:08;0.52;;;0.20;;
55170;SDS011;41060;47.510;8.680;2023-10-31T14:35:37;0.30;;;0.13;;
55170;SDS011;41060;47.510;8.680;2023-10-31T14:38:04;0.05;;;0.05;;
55170;SDS011;41060;47.510;8.680;2023-10-31T14:40:31;0.55;;;0.20;;
55170;SDS011;41060;47.510;8.680;2023-10-31T14:42:57;0.73;;;0.32;;
55170;SDS011;41060;47.510;8.680;2023-10-31T14:45:24;0.25;;;0.10;;
55170;SDS011;41060;47.510;8.680;2023-10-31T14:47:51;0.10;;;0.10;;
55170;SDS011;41060;47.510;8.680;2023-10-31T14:50:19;0.10;;;0.10;;
55170;SDS011;41060;47.510;8.680;2023-10-31T14:52:46;0.10;;;0.10;;